sensor_id;sensor_type;location;lat;lon;timestamp;P1;durP1;ratioP1;P2;durP2;ratioP2
10096;SDS011;5087;42.662;23.466;2024-03-23T00:55:54;4.80;;;4.70;;
10096;SDS011;5087;42.662;23.466;2024-03-23T00:58:21;4.30;;;4.20;;
10096;SDS011;5087;42.662;23.466;2024-03-23T01:00:46;4.53;;;4.43;;
10096;SDS011;5087;42.662;23.466;2024-03-23T01:03:13;4.70;;;4.60;;
10096;SDS011;5087;42.662;23.466;2024-03-23T01:05:39;4.70;;;4.60;;
10096;SDS011;5087;42.662;23.466;2024-03-23T01:08:06;5.00;;;4.90;;
10096;SDS011;5087;42.662;23.466;2024-03-23T01:10:31;5.00;;;4.90;;
10096;SDS011;5087;42.662;23.466;2024-03-23T01:13:00;5.00;;;4.90;;
10096;SDS011;5087;42.662;23.466;2024-03-23T01:15:25;5.03;;;4.93;;
10096;SDS011;5087;42.662;23.466;2024-03-23T01:17:53;5.47;;;5.37;;
10096;SDS011;5087;42.662;23.466;2024-03-23T01:20:18;5.40;;;5.30;;
10096;SDS011;5087;42.662;23.466;2024-03-23T01:22:45;5.93;;;5.83;;
10096;SDS011;5087;42.662;23.466;2024-03-23T01:25:11;5.60;;;5.50;;
10096;SDS011;5087;42.662;23.466;2024-03-23T01:27:38;5.70;;;5.60;;
10096;SDS011;5087;42.662;23.466;2024-03-23T01:30:06;5.80;;;5.70;;
10096;SDS011;5087;42.662;23.466;2024-03-23T01:32:33;6.30;;;6.20;;
10096;SDS011;5087;42.662;23.466;2024-03-23T01:34:59;6.27;;;6.17;;
10096;SDS011;5087;42.662;23.466;2024-03-23T01:37:26;6.70;;;6.60;;
10096;SDS011;5087;42.662;23.466;2024-03-23T01:39:52;6.40;;;6.30;;
10096;SDS011;5087;42.662;23.466;2024-03-23T01:42:18;7.20;;;7.00;;
10096;SDS011;5087;42.662;23.466;2024-03-23T01:44:44;7.80;;;7.60;;
10096;SDS011;5087;42.662;23.466;2024-03-23T01:47:12;7.50;;;7.30;;
10096;SDS011;5087;42.662;23.466;2024-03-23T01:49:38;6.90;;;6.70;;
10096;SDS011;5087;42.662;23.466;2024-03-23T01:52:05;7.00;;;6.80;;
10096;SDS011;5087;42.662;23.466;2024-03-23T01:54:31;7.10;;;6.90;;
10096;SDS011;5087;42.662;23.466;2024-03-23T01:57:01;7.00;;;6.80;;
10096;SDS011;5087;42.662;23.466;2024-03-23T01:59:27;7.20;;;7.00;;
10096;SDS011;5087;42.662;23.466;2024-03-23T02:01:53;7.00;;;6.80;;
10096;SDS011;5087;42.662;23.466;2024-03-23T02:04:22;6.63;;;6.53;;
10096;SDS011;5087;42.662;23.466;2024-03-23T02:06:49;7.07;;;6.87;;
10096;SDS011;5087;42.662;23.466;2024-03-23T02:09:15;6.03;;;5.93;;
10096;SDS011;5087;42.662;23.466;2024-03-23T02:11:42;5.30;;;5.20;;
10096;SDS011;5087;42.662;23.466;2024-03-23T02:14:07;5.60;;;5.50;;
10096;SDS011;5087;42.662;23.466;2024-03-23T02:16:34;5.57;;;5.47;;
10096;SDS011;5087;42.662;23.466;2024-03-23T02:18:59;5.90;;;5.80;;
10096;SDS011;5087;42.662;23.466;2024-03-23T02:21:28;5.20;;;5.10;;
10096;SDS011;5087;42.662;23.466;2024-03-23T02:23:59;5.80;;;5.70;;
10096;SDS011;5087;42.662;23.466;2024-03-23T02:26:26;5.60;;;5.50;;
10096;SDS011;5087;42.662;23.466;2024-03-23T02:28:52;5.33;;;5.23;;
10096;SDS011;5087;42.662;23.466;2024-03-23T02:31:18;5.90;;;5.80;;
10096;SDS011;5087;42.662;23.466;2024-03-23T02:33:44;6.40;;;6.30;;
10096;SDS011;5087;42.662;23.466;2024-03-23T02:36:11;6.00;;;5.90;;
10096;SDS011;5087;42.662;23.466;2024-03-23T02:38:37;5.83;;;5.73;;
10096;SDS011;5087;42.662;23.466;2024-03-23T02:41:05;4.80;;;4.70;;
10096;SDS011;5087;42.662;23.466;2024-03-23T02:43:31;4.50;;;4.40;;
10096;SDS011;5087;42.662;23.466;2024-03-23T02:45:57;4.83;;;4.73;;
10096;SDS011;5087;42.662;23.466;2024-03-23T02:48:26;5.00;;;4.90;;
10096;SDS011;5087;42.662;23.466;2024-03-23T02:50:53;5.40;;;5.30;;
10096;SDS011;5087;42.662;23.466;2024-03-23T02:53:19;5.60;;;5.50;;
10096;SDS011;5087;42.662;23.466;2024-03-23T02:55:46;5.70;;;5.60;;
10096;SDS011;5087;42.662;23.466;2024-03-23T02:58:13;6.10;;;6.00;;
10096;SDS011;5087;42.662;23.466;2024-03-23T03:00:40;6.53;;;6.43;;
10096;SDS011;5087;42.662;23.466;2024-03-23T03:03:06;6.20;;;6.10;;
10096;SDS011;5087;42.662;23.466;2024-03-23T03:05:34;6.60;;;6.50;;
10096;SDS011;5087;42.662;23.466;2024-03-23T03:07:59;7.07;;;6.87;;
10096;SDS011;5087;42.662;23.466;2024-03-23T03:10:26;6.37;;;6.27;;
10096;SDS011;5087;42.662;23.466;2024-03-23T03:12:52;6.30;;;6.20;;
10096;SDS011;5087;42.662;23.466;2024-03-23T03:15:20;6.50;;;6.40;;
10096;SDS011;5087;42.662;23.466;2024-03-23T03:17:46;6.20;;;6.10;;
10096;SDS011;5087;42.662;23.466;2024-03-23T03:20:13;6.50;;;6.40;;
10096;SDS011;5087;42.662;23.466;2024-03-23T03:22:40;6.60;;;6.50;;
10096;SDS011;5087;42.662;23.466;2024-03-23T03:25:07;6.73;;;6.60;;
10096;SDS011;5087;42.662;23.466;2024-03-23T03:27:33;6.23;;;6.13;;
10096;SDS011;5087;42.662;23.466;2024-03-23T03:30:00;6.20;;;6.10;;
10096;SDS011;5087;42.662;23.466;2024-03-23T03:32:29;6.00;;;5.90;;
10096;SDS011;5087;42.662;23.466;2024-03-23T03:34:56;5.63;;;5.53;;
10096;SDS011;5087;42.662;23.466;2024-03-23T03:37:22;5.23;;;5.13;;
10096;SDS011;5087;42.662;23.466;2024-03-23T03:39:49;5.60;;;5.50;;
10096;SDS011;5087;42.662;23.466;2024-03-23T03:42:14;5.20;;;5.10;;
10096;SDS011;5087;42.662;23.466;2024-03-23T03:44:41;5.20;;;5.10;;
10096;SDS011;5087;42.662;23.466;2024-03-23T03:47:07;5.00;;;4.90;;
10096;SDS011;5087;42.662;23.466;2024-03-23T03:49:35;4.80;;;4.70;;
10096;SDS011;5087;42.662;23.466;2024-03-23T03:52:00;4.90;;;4.80;;
10096;SDS011;5087;42.662;23.466;2024-03-23T03:54:28;4.90;;;4.80;;
10096;SDS011;5087;42.662;23.466;2024-03-23T03:56:53;4.93;;;4.83;;
10096;SDS011;5087;42.662;23.466;2024-03-23T03:59:20;4.70;;;4.60;;
10096;SDS011;5087;42.662;23.466;2024-03-23T04:01:46;4.80;;;4.70;;
10096;SDS011;5087;42.662;23.466;2024-03-23T04:04:13;4.80;;;4.70;;
10096;SDS011;5087;42.662;23.466;2024-03-23T04:06:40;4.80;;;4.70;;
10096;SDS011;5087;42.662;23.466;2024-03-23T04:09:07;4.70;;;4.60;;
10096;SDS011;5087;42.662;23.466;2024-03-23T04:11:33;4.60;;;4.50;;
10096;SDS011;5087;42.662;23.466;2024-03-23T04:14:00;4.30;;;4.20;;
10096;SDS011;5087;42.662;23.466;2024-03-23T04:16:29;4.20;;;4.10;;
10096;SDS011;5087;42.662;23.466;2024-03-23T04:18:56;4.40;;;4.30;;
10096;SDS011;5087;42.662;23.466;2024-03-23T04:21:21;4.30;;;4.20;;
10096;SDS011;5087;42.662;23.466;2024-03-23T04:23:50;4.40;;;4.30;;
10096;SDS011;5087;42.662;23.466;2024-03-23T04:26:16;4.70;;;4.60;;
10096;SDS011;5087;42.662;23.466;2024-03-23T04:28:43;4.90;;;4.80;;
10096;SDS011;5087;42.662;23.466;2024-03-23T04:31:08;5.40;;;5.30;;
10096;SDS011;5087;42.662;23.466;2024-03-23T04:33:35;5.30;;;5.20;;
10096;SDS011;5087;42.662;23.466;2024-03-23T04:36:01;5.57;;;5.47;;
10096;SDS011;5087;42.662;23.466;2024-03-23T04:38:28;5.70;;;5.60;;
10096;SDS011;5087;42.662;23.466;2024-03-23T04:40:57;5.90;;;5.80;;
10096;SDS011;5087;42.662;23.466;2024-03-23T04:43:25;6.10;;;6.00;;
10096;SDS011;5087;42.662;23.466;2024-03-23T04:45:52;6.00;;;5.90;;
10096;SDS011;5087;42.662;23.466;2024-03-23T04:48:20;5.70;;;5.60;;
10096;SDS011;5087;42.662;23.466;2024-03-23T04:50:46;5.30;;;5.20;;
10096;SDS011;5087;42.662;23.466;2024-03-23T04:53:14;5.50;;;5.40;;
10096;SDS011;5087;42.662;23.466;2024-03-23T04:55:41;5.40;;;5.30;;
10096;SDS011;5087;42.662;23.466;2024-03-23T04:58:11;5.23;;;5.13;;
10096;SDS011;5087;42.662;23.466;2024-03-23T05:00:36;5.03;;;4.93;;
10096;SDS011;5087;42.662;23.466;2024-03-23T05:03:03;5.20;;;5.10;;
10096;SDS011;5087;42.662;23.466;2024-03-23T05:05:29;5.00;;;4.90;;
10096;SDS011;5087;42.662;23.466;2024-03-23T05:07:56;4.80;;;4.70;;
10096;SDS011;5087;42.662;23.466;2024-03-23T05:10:22;5.20;;;5.10;;
10096;SDS011;5087;42.662;23.466;2024-03-23T05:12:49;5.30;;;5.20;;
10096;SDS011;5087;42.662;23.466;2024-03-23T05:15:16;5.30;;;5.20;;
10096;SDS011;5087;42.662;23.466;2024-03-23T05:17:43;5.50;;;5.40;;
10096;SDS011;5087;42.662;23.466;2024-03-23T05:20:09;4.80;;;4.70;;
10096;SDS011;5087;42.662;23.466;2024-03-23T05:22:37;5.07;;;4.97;;
10096;SDS011;5087;42.662;23.466;2024-03-23T05:25:03;5.03;;;4.93;;
10096;SDS011;5087;42.662;23.466;2024-03-23T05:27:31;5.27;;;5.17;;
10096;SDS011;5087;42.662;23.466;2024-03-23T05:29:57;5.30;;;5.20;;
10096;SDS011;5087;42.662;23.466;2024-03-23T05:32:27;5.10;;;5.00;;
10096;SDS011;5087;42.662;23.466;2024-03-23T05:34:53;4.50;;;4.40;;
10096;SDS011;5087;42.662;23.466;2024-03-23T05:37:25;5.10;;;5.00;;
10096;SDS011;5087;42.662;23.466;2024-03-23T05:39:54;5.40;;;5.30;;
10096;SDS011;5087;42.662;23.466;2024-03-23T05:42:24;5.20;;;5.10;;
10096;SDS011;5087;42.662;23.466;2024-03-23T05:44:57;5.87;;;5.77;;
10096;SDS011;5087;42.662;23.466;2024-03-23T05:47:24;6.60;;;6.50;;
10096;SDS011;5087;42.662;23.466;2024-03-23T05:49:58;6.67;;;6.57;;
10096;SDS011;5087;42.662;23.466;2024-03-23T05:52:26;6.90;;;6.70;;
10096;SDS011;5087;42.662;23.466;2024-03-23T05:54:56;6.50;;;6.40;;
10096;SDS011;5087;42.662;23.466;2024-03-23T05:57:27;6.70;;;6.60;;
10096;SDS011;5087;42.662;23.466;2024-03-23T06:00:00;6.93;;;6.73;;
10096;SDS011;5087;42.662;23.466;2024-03-23T06:02:32;7.30;;;7.10;;
10096;SDS011;5087;42.662;23.466;2024-03-23T06:05:04;6.60;;;6.50;;
10096;SDS011;5087;42.662;23.466;2024-03-23T06:07:29;7.07;;;6.87;;
10096;SDS011;5087;42.662;23.466;2024-03-23T06:10:00;7.20;;;7.00;;
10096;SDS011;5087;42.662;23.466;2024-03-23T06:12:30;7.30;;;7.10;;
10096;SDS011;5087;42.662;23.466;2024-03-23T06:15:01;7.60;;;7.40;;
10096;SDS011;5087;42.662;23.466;2024-03-23T06:17:27;8.10;;;7.90;;
10096;SDS011;5087;42.662;23.466;2024-03-23T06:20:06;8.30;;;8.10;;
10096;SDS011;5087;42.662;23.466;2024-03-23T06:22:38;7.30;;;7.10;;
10096;SDS011;5087;42.662;23.466;2024-03-23T06:25:05;6.10;;;6.00;;
10096;SDS011;5087;42.662;23.466;2024-03-23T06:27:35;5.60;;;5.50;;
10096;SDS011;5087;42.662;23.466;2024-03-23T06:30:06;5.80;;;5.70;;
10096;SDS011;5087;42.662;23.466;2024-03-23T06:32:37;6.30;;;6.20;;
10096;SDS011;5087;42.662;23.466;2024-03-23T06:35:16;6.20;;;6.10;;
10096;SDS011;5087;42.662;23.466;2024-03-23T06:37:41;5.50;;;5.40;;
10096;SDS011;5087;42.662;23.466;2024-03-23T06:40:08;5.50;;;5.40;;
10096;SDS011;5087;42.662;23.466;2024-03-23T06:42:38;4.77;;;4.67;;
10096;SDS011;5087;42.662;23.466;2024-03-23T06:45:08;4.80;;;4.70;;
10096;SDS011;5087;42.662;23.466;2024-03-23T06:47:34;4.80;;;4.70;;
10096;SDS011;5087;42.662;23.466;2024-03-23T06:50:01;5.07;;;4.97;;
10096;SDS011;5087;42.662;23.466;2024-03-23T06:52:29;4.70;;;4.60;;
10096;SDS011;5087;42.662;23.466;2024-03-23T06:55:03;4.67;;;4.57;;
10096;SDS011;5087;42.662;23.466;2024-03-23T06:57:30;5.00;;;4.90;;
10096;SDS011;5087;42.662;23.466;2024-03-23T06:59:57;5.10;;;5.00;;
10096;SDS011;5087;42.662;23.466;2024-03-23T07:02:23;4.60;;;4.50;;
10096;SDS011;5087;42.662;23.466;2024-03-23T07:04:50;4.80;;;4.70;;
10096;SDS011;5087;42.662;23.466;2024-03-23T07:07:15;4.30;;;4.20;;
10096;SDS011;5087;42.662;23.466;2024-03-23T07:09:44;4.67;;;4.57;;
10096;SDS011;5087;42.662;23.466;2024-03-23T07:12:10;4.57;;;4.47;;
10096;SDS011;5087;42.662;23.466;2024-03-23T07:14:36;3.90;;;3.90;;
10096;SDS011;5087;42.662;23.466;2024-03-23T07:17:02;3.60;;;3.60;;
10096;SDS011;5087;42.662;23.466;2024-03-23T07:19:29;3.50;;;3.50;;
10096;SDS011;5087;42.662;23.466;2024-03-23T07:21:55;3.00;;;3.00;;
10096;SDS011;5087;42.662;23.466;2024-03-23T07:24:22;2.30;;;2.30;;
10096;SDS011;5087;42.662;23.466;2024-03-23T07:26:49;2.20;;;2.20;;
10096;SDS011;5087;42.662;23.466;2024-03-23T07:29:16;2.00;;;2.00;;
10096;SDS011;5087;42.662;23.466;2024-03-23T07:31:42;1.90;;;1.90;;
10096;SDS011;5087;42.662;23.466;2024-03-23T07:34:09;2.10;;;2.10;;
10096;SDS011;5087;42.662;23.466;2024-03-23T07:36:34;1.70;;;1.70;;
10096;SDS011;5087;42.662;23.466;2024-03-23T07:39:01;1.40;;;1.40;;
10096;SDS011;5087;42.662;23.466;2024-03-23T07:41:30;1.40;;;1.40;;
10096;SDS011;5087;42.662;23.466;2024-03-23T07:43:58;1.40;;;1.40;;
10096;SDS011;5087;42.662;23.466;2024-03-23T07:46:27;1.30;;;1.30;;
10096;SDS011;5087;42.662;23.466;2024-03-23T07:48:54;1.50;;;1.50;;
10096;SDS011;5087;42.662;23.466;2024-03-23T07:51:20;1.20;;;1.20;;
10096;SDS011;5087;42.662;23.466;2024-03-23T07:53:47;1.10;;;1.10;;
10096;SDS011;5087;42.662;23.466;2024-03-23T07:56:14;1.03;;;1.03;;
10096;SDS011;5087;42.662;23.466;2024-03-23T07:58:40;1.00;;;1.00;;
10096;SDS011;5087;42.662;23.466;2024-03-23T08:01:09;1.20;;;1.20;;
10096;SDS011;5087;42.662;23.466;2024-03-23T08:03:34;1.20;;;1.20;;
10096;SDS011;5087;42.662;23.466;2024-03-23T08:06:08;1.27;;;1.27;;
10096;SDS011;5087;42.662;23.466;2024-03-23T08:08:34;1.40;;;1.40;;
10096;SDS011;5087;42.662;23.466;2024-03-23T08:11:01;1.33;;;1.33;;
10096;SDS011;5087;42.662;23.466;2024-03-23T08:13:26;1.30;;;1.30;;
10096;SDS011;5087;42.662;23.466;2024-03-23T08:15:55;1.30;;;1.30;;
10096;SDS011;5087;42.662;23.466;2024-03-23T08:18:23;1.60;;;1.60;;
10096;SDS011;5087;42.662;23.466;2024-03-23T08:20:55;1.60;;;1.60;;
10096;SDS011;5087;42.662;23.466;2024-03-23T08:23:21;1.40;;;1.40;;
10096;SDS011;5087;42.662;23.466;2024-03-23T08:25:47;1.20;;;1.20;;
10096;SDS011;5087;42.662;23.466;2024-03-23T08:28:13;1.10;;;1.10;;
10096;SDS011;5087;42.662;23.466;2024-03-23T08:30:40;1.10;;;1.10;;
10096;SDS011;5087;42.662;23.466;2024-03-23T08:33:06;1.20;;;1.20;;
10096;SDS011;5087;42.662;23.466;2024-03-23T08:35:34;0.90;;;0.90;;
10096;SDS011;5087;42.662;23.466;2024-03-23T08:38:00;1.10;;;1.10;;
10096;SDS011;5087;42.662;23.466;2024-03-23T08:40:27;0.90;;;0.90;;
10096;SDS011;5087;42.662;23.466;2024-03-23T08:42:53;1.10;;;1.10;;
10096;SDS011;5087;42.662;23.466;2024-03-23T08:45:19;1.10;;;1.10;;
10096;SDS011;5087;42.662;23.466;2024-03-23T08:47:45;1.00;;;1.00;;
10096;SDS011;5087;42.662;23.466;2024-03-23T08:50:12;1.20;;;1.20;;
10096;SDS011;5087;42.662;23.466;2024-03-23T08:52:40;1.00;;;1.00;;
10096;SDS011;5087;42.662;23.466;2024-03-23T08:55:07;1.00;;;1.00;;
10096;SDS011;5087;42.662;23.466;2024-03-23T08:57:33;1.00;;;1.00;;
10096;SDS011;5087;42.662;23.466;2024-03-23T09:00:00;0.90;;;0.90;;
10096;SDS011;5087;42.662;23.466;2024-03-23T09:02:25;0.90;;;0.90;;
10096;SDS011;5087;42.662;23.466;2024-03-23T09:04:52;0.90;;;0.90;;
10096;SDS011;5087;42.662;23.466;2024-03-23T09:07:18;0.90;;;0.90;;
10096;SDS011;5087;42.662;23.466;2024-03-23T09:09:46;1.00;;;1.00;;
10096;SDS011;5087;42.662;23.466;2024-03-23T09:12:11;0.90;;;0.90;;
10096;SDS011;5087;42.662;23.466;2024-03-23T09:14:38;1.00;;;1.00;;
10096;SDS011;5087;42.662;23.466;2024-03-23T09:17:04;1.00;;;1.00;;
10096;SDS011;5087;42.662;23.466;2024-03-23T09:19:31;0.80;;;0.80;;
10096;SDS011;5087;42.662;23.466;2024-03-23T09:21:56;0.80;;;0.80;;
10096;SDS011;5087;42.662;23.466;2024-03-23T09:24:25;0.80;;;0.80;;
10096;SDS011;5087;42.662;23.466;2024-03-23T09:26:52;0.80;;;0.80;;
10096;SDS011;5087;42.662;23.466;2024-03-23T09:29:19;0.70;;;0.70;;
10096;SDS011;5087;42.662;23.466;2024-03-23T09:31:45;0.80;;;0.80;;
10096;SDS011;5087;42.662;23.466;2024-03-23T09:34:12;0.70;;;0.70;;
10096;SDS011;5087;42.662;23.466;2024-03-23T09:36:37;0.70;;;0.70;;
10096;SDS011;5087;42.662;23.466;2024-03-23T09:39:04;0.80;;;0.80;;
10096;SDS011;5087;42.662;23.466;2024-03-23T09:41:31;0.80;;;0.80;;
10096;SDS011;5087;42.662;23.466;2024-03-23T09:44:00;0.80;;;0.80;;
10096;SDS011;5087;42.662;23.466;2024-03-23T09:46:26;0.80;;;0.80;;
10096;SDS011;5087;42.662;23.466;2024-03-23T09:48:53;0.80;;;0.80;;
10096;SDS011;5087;42.662;23.466;2024-03-23T09:51:20;0.70;;;0.70;;
10096;SDS011;5087;42.662;23.466;2024-03-23T09:53:49;0.80;;;0.80;;
10096;SDS011;5087;42.662;23.466;2024-03-23T09:56:15;0.70;;;0.70;;
10096;SDS011;5087;42.662;23.466;2024-03-23T09:58:42;0.70;;;0.70;;
10096;SDS011;5087;42.662;23.466;2024-03-23T10:01:09;0.80;;;0.80;;
10096;SDS011;5087;42.662;23.466;2024-03-23T10:03:42;0.80;;;0.80;;
10096;SDS011;5087;42.662;23.466;2024-03-23T10:06:08;0.80;;;0.80;;
10096;SDS011;5087;42.662;23.466;2024-03-23T10:08:34;0.70;;;0.70;;
10096;SDS011;5087;42.662;23.466;2024-03-23T10:11:12;0.80;;;0.80;;
10096;SDS011;5087;42.662;23.466;2024-03-23T10:13:39;0.80;;;0.80;;
10096;SDS011;5087;42.662;23.466;2024-03-23T10:16:06;0.73;;;0.73;;
10096;SDS011;5087;42.662;23.466;2024-03-23T10:18:38;0.80;;;0.80;;
10096;SDS011;5087;42.662;23.466;2024-03-23T10:21:07;0.70;;;0.70;;
10096;SDS011;5087;42.662;23.466;2024-03-23T10:23:36;0.80;;;0.80;;
10096;SDS011;5087;42.662;23.466;2024-03-23T10:26:16;0.80;;;0.80;;
10096;SDS011;5087;42.662;23.466;2024-03-23T10:28:52;0.70;;;0.70;;
10096;SDS011;5087;42.662;23.466;2024-03-23T10:31:19;0.70;;;0.70;;
10096;SDS011;5087;42.662;23.466;2024-03-23T10:33:48;0.70;;;0.70;;
10096;SDS011;5087;42.662;23.466;2024-03-23T10:36:14;0.80;;;0.80;;
10096;SDS011;5087;42.662;23.466;2024-03-23T10:38:41;0.70;;;0.70;;
10096;SDS011;5087;42.662;23.466;2024-03-23T10:41:07;0.60;;;0.60;;
10096;SDS011;5087;42.662;23.466;2024-03-23T10:43:34;0.70;;;0.70;;
10096;SDS011;5087;42.662;23.466;2024-03-23T10:46:01;0.70;;;0.70;;
10096;SDS011;5087;42.662;23.466;2024-03-23T10:48:28;0.80;;;0.80;;
10096;SDS011;5087;42.662;23.466;2024-03-23T10:50:55;0.70;;;0.70;;
10096;SDS011;5087;42.662;23.466;2024-03-23T10:53:24;0.80;;;0.80;;
10096;SDS011;5087;42.662;23.466;2024-03-23T10:55:50;0.73;;;0.73;;
10096;SDS011;5087;42.662;23.466;2024-03-23T10:58:17;0.80;;;0.80;;
10096;SDS011;5087;42.662;23.466;2024-03-23T11:00:44;0.70;;;0.70;;
10096;SDS011;5087;42.662;23.466;2024-03-23T11:03:30;0.70;;;0.70;;
10096;SDS011;5087;42.662;23.466;2024-03-23T11:05:57;0.70;;;0.70;;
10096;SDS011;5087;42.662;23.466;2024-03-23T11:08:30;0.70;;;0.70;;
10096;SDS011;5087;42.662;23.466;2024-03-23T11:11:11;0.70;;;0.70;;
10096;SDS011;5087;42.662;23.466;2024-03-23T11:13:38;0.70;;;0.70;;
10096;SDS011;5087;42.662;23.466;2024-03-23T11:16:12;0.80;;;0.80;;
10096;SDS011;5087;42.662;23.466;2024-03-23T11:18:39;0.70;;;0.70;;
10096;SDS011;5087;42.662;23.466;2024-03-23T11:21:07;0.70;;;0.70;;
10096;SDS011;5087;42.662;23.466;2024-03-23T11:23:34;0.60;;;0.60;;
10096;SDS011;5087;42.662;23.466;2024-03-23T11:26:00;0.70;;;0.70;;
10096;SDS011;5087;42.662;23.466;2024-03-23T11:28:27;0.70;;;0.70;;
10096;SDS011;5087;42.662;23.466;2024-03-23T11:30:52;0.60;;;0.60;;
10096;SDS011;5087;42.662;23.466;2024-03-23T11:33:19;0.70;;;0.70;;
10096;SDS011;5087;42.662;23.466;2024-03-23T11:35:45;0.70;;;0.70;;
10096;SDS011;5087;42.662;23.466;2024-03-23T11:38:14;0.60;;;0.60;;
10096;SDS011;5087;42.662;23.466;2024-03-23T11:40:40;0.60;;;0.60;;
10096;SDS011;5087;42.662;23.466;2024-03-23T11:43:08;0.80;;;0.80;;
10096;SDS011;5087;42.662;23.466;2024-03-23T11:45:34;0.70;;;0.70;;
10096;SDS011;5087;42.662;23.466;2024-03-23T11:48:05;0.80;;;0.80;;
10096;SDS011;5087;42.662;23.466;2024-03-23T11:50:31;0.70;;;0.70;;
10096;SDS011;5087;42.662;23.466;2024-03-23T11:53:15;0.70;;;0.70;;
10096;SDS011;5087;42.662;23.466;2024-03-23T11:55:42;0.90;;;0.90;;
10096;SDS011;5087;42.662;23.466;2024-03-23T11:58:09;0.60;;;0.60;;
10096;SDS011;5087;42.662;23.466;2024-03-23T12:00:35;0.70;;;0.70;;
10096;SDS011;5087;42.662;23.466;2024-03-23T12:03:02;0.60;;;0.60;;
10096;SDS011;5087;42.662;23.466;2024-03-23T12:05:28;0.70;;;0.70;;
10096;SDS011;5087;42.662;23.466;2024-03-23T12:07:56;0.70;;;0.70;;
10096;SDS011;5087;42.662;23.466;2024-03-23T12:10:43;0.67;;;0.67;;
10096;SDS011;5087;42.662;23.466;2024-03-23T12:13:10;0.70;;;0.70;;
10096;SDS011;5087;42.662;23.466;2024-03-23T12:15:36;0.70;;;0.70;;
10096;SDS011;5087;42.662;23.466;2024-03-23T12:18:06;0.70;;;0.70;;
10096;SDS011;5087;42.662;23.466;2024-03-23T12:20:32;0.80;;;0.80;;
10096;SDS011;5087;42.662;23.466;2024-03-23T12:23:06;0.70;;;0.70;;
10096;SDS011;5087;42.662;23.466;2024-03-23T12:25:32;0.70;;;0.70;;
10096;SDS011;5087;42.662;23.466;2024-03-23T12:28:00;0.80;;;0.80;;
10096;SDS011;5087;42.662;23.466;2024-03-23T12:30:26;0.70;;;0.70;;
10096;SDS011;5087;42.662;23.466;2024-03-23T12:32:53;0.70;;;0.70;;
10096;SDS011;5087;42.662;23.466;2024-03-23T12:35:19;0.70;;;0.70;;
10096;SDS011;5087;42.662;23.466;2024-03-23T12:37:46;0.70;;;0.70;;
10096;SDS011;5087;42.662;23.466;2024-03-23T12:40:12;0.70;;;0.70;;
10096;SDS011;5087;42.662;23.466;2024-03-23T12:42:39;0.60;;;0.60;;
10096;SDS011;5087;42.662;23.466;2024-03-23T12:45:06;0.60;;;0.60;;
10096;SDS011;5087;42.662;23.466;2024-03-23T12:47:33;0.70;;;0.70;;
10096;SDS011;5087;42.662;23.466;2024-03-23T12:50:00;0.60;;;0.60;;
10096;SDS011;5087;42.662;23.466;2024-03-23T12:52:26;0.70;;;0.70;;
10096;SDS011;5087;42.662;23.466;2024-03-23T12:54:54;0.60;;;0.60;;
10096;SDS011;5087;42.662;23.466;2024-03-23T12:57:22;0.60;;;0.60;;
10096;SDS011;5087;42.662;23.466;2024-03-23T12:59:48;0.60;;;0.60;;
10096;SDS011;5087;42.662;23.466;2024-03-23T13:02:18;0.70;;;0.70;;
10096;SDS011;5087;42.662;23.466;2024-03-23T13:04:44;0.70;;;0.70;;
10096;SDS011;5087;42.662;23.466;2024-03-23T13:07:11;0.70;;;0.70;;
10096;SDS011;5087;42.662;23.466;2024-03-23T13:09:38;0.70;;;0.70;;
10096;SDS011;5087;42.662;23.466;2024-03-23T13:12:05;0.70;;;0.70;;
10096;SDS011;5087;42.662;23.466;2024-03-23T13:14:31;0.60;;;0.60;;
10096;SDS011;5087;42.662;23.466;2024-03-23T13:16:57;0.70;;;0.70;;
10096;SDS011;5087;42.662;23.466;2024-03-23T13:19:24;0.80;;;0.80;;
10096;SDS011;5087;42.662;23.466;2024-03-23T13:21:53;0.70;;;0.70;;
10096;SDS011;5087;42.662;23.466;2024-03-23T13:24:21;0.80;;;0.80;;
10096;SDS011;5087;42.662;23.466;2024-03-23T13:26:47;0.80;;;0.80;;
10096;SDS011;5087;42.662;23.466;2024-03-23T13:29:13;0.83;;;0.83;;
10096;SDS011;5087;42.662;23.466;2024-03-23T13:31:40;0.80;;;0.80;;
10096;SDS011;5087;42.662;23.466;2024-03-23T13:34:06;0.90;;;0.90;;
10096;SDS011;5087;42.662;23.466;2024-03-23T13:36:34;0.70;;;0.70;;
10096;SDS011;5087;42.662;23.466;2024-03-23T13:39:01;0.80;;;0.80;;
10096;SDS011;5087;42.662;23.466;2024-03-23T13:41:30;0.70;;;0.70;;
10096;SDS011;5087;42.662;23.466;2024-03-23T13:43:56;0.77;;;0.77;;
10096;SDS011;5087;42.662;23.466;2024-03-23T13:46:23;0.80;;;0.80;;
10096;SDS011;5087;42.662;23.466;2024-03-23T13:48:49;0.70;;;0.70;;
10096;SDS011;5087;42.662;23.466;2024-03-23T13:51:15;0.80;;;0.80;;
10096;SDS011;5087;42.662;23.466;2024-03-23T13:53:51;0.80;;;0.80;;
10096;SDS011;5087;42.662;23.466;2024-03-23T13:56:17;0.70;;;0.70;;
10096;SDS011;5087;42.662;23.466;2024-03-23T13:58:43;0.70;;;0.70;;
10096;SDS011;5087;42.662;23.466;2024-03-23T14:01:12;0.90;;;0.90;;
10096;SDS011;5087;42.662;23.466;2024-03-23T14:03:38;0.90;;;0.90;;
10096;SDS011;5087;42.662;23.466;2024-03-23T14:06:05;0.83;;;0.83;;
10096;SDS011;5087;42.662;23.466;2024-03-23T14:08:33;0.90;;;0.90;;
10096;SDS011;5087;42.662;23.466;2024-03-23T14:11:03;0.80;;;0.80;;
10096;SDS011;5087;42.662;23.466;2024-03-23T14:13:29;0.90;;;0.90;;
10096;SDS011;5087;42.662;23.466;2024-03-23T14:15:56;0.90;;;0.90;;
10096;SDS011;5087;42.662;23.466;2024-03-23T14:18:22;0.80;;;0.80;;
10096;SDS011;5087;42.662;23.466;2024-03-23T14:20:49;0.70;;;0.70;;
10096;SDS011;5087;42.662;23.466;2024-03-23T14:23:15;0.90;;;0.90;;
10096;SDS011;5087;42.662;23.466;2024-03-23T14:25:42;0.90;;;0.90;;
10096;SDS011;5087;42.662;23.466;2024-03-23T14:28:09;0.80;;;0.80;;
10096;SDS011;5087;42.662;23.466;2024-03-23T14:30:39;0.80;;;0.80;;
10096;SDS011;5087;42.662;23.466;2024-03-23T14:33:05;0.70;;;0.70;;
10096;SDS011;5087;42.662;23.466;2024-03-23T14:35:32;0.80;;;0.80;;
10096;SDS011;5087;42.662;23.466;2024-03-23T14:37:58;0.93;;;0.93;;
10096;SDS011;5087;42.662;23.466;2024-03-23T14:40:27;0.80;;;0.80;;
10096;SDS011;5087;42.662;23.466;2024-03-23T14:42:53;0.80;;;0.80;;
10096;SDS011;5087;42.662;23.466;2024-03-23T14:45:21;0.70;;;0.70;;
10096;SDS011;5087;42.662;23.466;2024-03-23T14:47:47;0.80;;;0.80;;
10096;SDS011;5087;42.662;23.466;2024-03-23T14:50:14;0.80;;;0.80;;
10096;SDS011;5087;42.662;23.466;2024-03-23T14:52:41;0.70;;;0.70;;
10096;SDS011;5087;42.662;23.466;2024-03-23T14:55:08;0.80;;;0.80;;
10096;SDS011;5087;42.662;23.466;2024-03-23T14:57:34;0.70;;;0.70;;
10096;SDS011;5087;42.662;23.466;2024-03-23T15:00:01;0.80;;;0.80;;
10096;SDS011;5087;42.662;23.466;2024-03-23T15:02:31;0.73;;;0.73;;
10096;SDS011;5087;42.662;23.466;2024-03-23T15:04:58;0.80;;;0.80;;
10096;SDS011;5087;42.662;23.466;2024-03-23T15:07:27;0.80;;;0.80;;
10096;SDS011;5087;42.662;23.466;2024-03-23T15:09:54;0.80;;;0.80;;
10096;SDS011;5087;42.662;23.466;2024-03-23T15:12:20;0.70;;;0.70;;
10096;SDS011;5087;42.662;23.466;2024-03-23T15:14:47;0.70;;;0.70;;
10096;SDS011;5087;42.662;23.466;2024-03-23T15:17:13;0.70;;;0.70;;
10096;SDS011;5087;42.662;23.466;2024-03-23T15:19:41;0.70;;;0.70;;
10096;SDS011;5087;42.662;23.466;2024-03-23T15:22:07;0.90;;;0.90;;
10096;SDS011;5087;42.662;23.466;2024-03-23T15:24:35;0.80;;;0.80;;
10096;SDS011;5087;42.662;23.466;2024-03-23T15:27:01;0.80;;;0.80;;
10096;SDS011;5087;42.662;23.466;2024-03-23T15:29:28;0.80;;;0.80;;
10096;SDS011;5087;42.662;23.466;2024-03-23T15:31:54;0.73;;;0.73;;
10096;SDS011;5087;42.662;23.466;2024-03-23T15:34:21;0.90;;;0.90;;
10096;SDS011;5087;42.662;23.466;2024-03-23T15:36:48;0.80;;;0.80;;
10096;SDS011;5087;42.662;23.466;2024-03-23T15:39:16;0.80;;;0.80;;
10096;SDS011;5087;42.662;23.466;2024-03-23T15:41:44;0.80;;;0.80;;
10096;SDS011;5087;42.662;23.466;2024-03-23T15:44:11;0.70;;;0.70;;